Time;durP1;ratioP1;P1;durP2;ratioP2;P2;SDS_P1;SDS_P2;PMS_P1;PMS_P2;Temp;Humidity;BMP_temperature;BMP_pressure;BME280_temperature;BME280_humidity;BME280_pressure;Samples;Min_cycle;Max_cycle;Signal;HPM_P1;HPM_P2
2023/04/07 00:00:54;;;;;;;;;;;;;;;;;;4944222;28;19950;-86
2023/04/07 00:03:20;;;;;;;;;;;;;;;;;;4928685;29;19982;-86
2023/04/07 00:05:46;;;;;;;;;;;;;;;;;;4944421;28;19915;-87
2023/04/07 00:08:11;;;;;;;;;;;;;;;;;;4927215;29;19903;-87
2023/04/07 00:10:36;;;;;;;;;;;;;;;;;;4922727;29;19943;-84
2023/04/07 00:13:02;;;;;;;;;;;;;;;;;;4922321;29;19988;-85
2023/04/07 00:15:27;;;;;;;;;;;;;;;;;;4938850;29;19994;-84
2023/04/07 00:17:53;;;;;;;;;;;;;;;;;;4939370;29;19970;-84
2023/04/07 00:20:19;;;;;;;;;;;;;;;;;;4938325;29;19954;-86
2023/04/07 00:22:44;;;;;;;;;;;;;;;;;;4940033;29;19921;-85
2023/04/07 00:25:10;;;;;;;;;;;;;;;;;;4942374;28;19968;-83
2023/04/07 00:27:36;;;;;;;;;;;;;;;;;;4944564;28;19911;-83
2023/04/07 00:30:02;;;;;;;;;;;;;;;;;;4943466;29;19922;-83
2023/04/07 00:32:27;;;;;;;;;;;;;;;;;;4943042;29;19915;-83
2023/04/07 00:34:53;;;;;;;;;;;;;;;;;;4942960;29;19903;-83
2023/04/07 00:37:19;;;;;;;;;;;;;;;;;;4911008;23;19927;-79
2023/04/07 00:39:45;;;;;;;;;;;;;;;;;;4888374;29;19922;-79
2023/04/07 00:42:10;;;;;;;;;;;;;;;;;;4862399;29;19968;-79
2023/04/07 00:44:36;;;;;;;;;;;;;;;;;;4884315;29;19916;-79
2023/04/07 00:47:01;;;;;;;;;;;;;;;;;;4882826;29;20268;-79
2023/04/07 00:49:30;;;;;;;;;;;;;;;;;;4866244;29;19919;-79
2023/04/07 00:51:56;;;;;;;;;;;;;;;;;;4896815;29;20019;-79
2023/04/07 00:54:21;;;;;;;;;;;;;;;;;;4881032;29;19963;-78
2023/04/07 00:56:47;;;;;;;;;;;;;;;;;;4898011;29;20497;-79
2023/04/07 00:59:13;;;;;;;;;;;;;;;;;;4899443;29;19926;-79
2023/04/07 01:01:38;;;;;;;;;;;;;;;;;;4901879;29;20544;-79
2023/04/07 01:04:04;;;;;;;;;;;;;;;;;;4901373;29;19920;-79
2023/04/07 01:06:30;;;;;;;;;;;;;;;;;;4900018;29;19915;-79
2023/04/07 01:08:55;;;;;;;;;;;;;;;;;;4900312;29;19916;-79
2023/04/07 01:11:21;;;;;;;;;;;;;;;;;;4884155;29;19922;-79
2023/04/07 01:13:47;;;;;;;;;;;;;;;;;;4900288;29;19916;-79
2023/04/07 01:16:18;;;;;;;;;;;;;;;;;;4883135;29;19966;-79
2023/04/07 01:18:47;;;;;;;;;;;;;;;;;;4900380;29;19919;-79
2023/04/07 01:21:13;;;;;;;;;;;;;;;;;;4887449;29;19962;-79
2023/04/07 01:23:38;;;;;;;;;;;;;;;;;;4904667;29;19956;-79
2023/04/07 01:26:03;;;;;;;;;;;;;;;;;;4888161;29;19915;-79
2023/04/07 01:28:29;;;;;;;;;;;;;;;;;;4887713;29;19926;-79
2023/04/07 01:30:55;;;;;;;;;;;;;;;;;;4902974;29;19922;-79
2023/04/07 01:33:20;;;;;;;;;;;;;;;;;;4904084;29;19916;-79
2023/04/07 01:35:45;;;;;;;;;;;;;;;;;;4905292;29;19916;-79
2023/04/07 01:38:11;;;;;;;;;;;;;;;;;;4904821;29;19955;-79
2023/04/07 01:40:36;;;;;;;;;;;;;;;;;;4904712;29;20269;-79
2023/04/07 01:43:02;;;;;;;;;;;;;;;;;;4904672;29;19923;-79
2023/04/07 01:45:27;;;;;;;;;;;;;;;;;;4906542;29;20010;-79
2023/04/07 01:47:52;;;;;;;;;;;;;;;;;;4906011;29;19923;-79
2023/04/07 01:50:18;;;;;;;;;;;;;;;;;;4907235;29;19923;-79
2023/04/07 01:52:43;;;;;;;;;;;;;;;;;;4908333;29;19916;-79
2023/04/07 01:55:09;;;;;;;;;;;;;;;;;;4910498;29;19922;-79
2023/04/07 01:57:38;;;;;;;;;;;;;;;;;;4909411;29;19920;-80
2023/04/07 02:00:10;;;;;;;;;;;;;;;;;;4909855;29;19915;-79
2023/04/07 02:02:46;;;;;;;;;;;;;;;;;;4908711;29;19922;-79
2023/04/07 02:05:12;;;;;;;;;;;;;;;;;;4909207;29;19938;-79
2023/04/07 02:07:37;;;;;;;;;;;;;;;;;;4907423;29;19955;-79
2023/04/07 02:10:02;;;;;;;;;;;;;;;;;;4890553;29;19923;-79
2023/04/07 02:12:28;;;;;;;;;;;;;;;;;;4906555;29;20307;-80
2023/04/07 02:15:03;;;;;;;;;;;;;;;;;;4895339;29;20429;-80
2023/04/07 02:17:28;;;;;;;;;;;;;;;;;;4910739;29;20483;-79
2023/04/07 02:19:53;;;;;;;;;;;;;;;;;;4911952;29;19942;-78
2023/04/07 02:22:19;;;;;;;;;;;;;;;;;;4904670;29;19966;-79
2023/04/07 02:24:45;;;;;;;;;;;;;;;;;;4888112;29;19915;-79
2023/04/07 02:27:10;;;;;;;;;;;;;;;;;;4884769;29;19916;-78
2023/04/07 02:29:35;;;;;;;;;;;;;;;;;;4872068;29;19915;-79
2023/04/07 02:32:01;;;;;;;;;;;;;;;;;;4890313;29;20307;-79
2023/04/07 02:34:28;;;;;;;;;;;;;;;;;;4889084;29;19926;-78
2023/04/07 02:36:53;;;;;;;;;;;;;;;;;;4889854;29;19987;-79
2023/04/07 02:39:18;;;;;;;;;;;;;;;;;;4890493;29;20345;-78
2023/04/07 02:41:44;;;;;;;;;;;;;;;;;;4908085;29;19915;-79
2023/04/07 02:44:09;;;;;;;;;;;;;;;;;;4908556;29;19915;-80
2023/04/07 02:46:35;;;;;;;;;;;;;;;;;;4907148;29;20010;-78
2023/04/07 02:49:00;;;;;;;;;;;;;;;;;;4876118;29;19916;-79
2023/04/07 02:51:26;;;;;;;;;;;;;;;;;;4907524;29;19922;-80
2023/04/07 02:53:51;;;;;;;;;;;;;;;;;;4907454;29;19916;-79
2023/04/07 02:56:16;;;;;;;;;;;;;;;;;;4906715;29;19915;-79
2023/04/07 02:58:42;;;;;;;;;;;;;;;;;;4899818;29;19926;-79
2023/04/07 03:01:08;;;;;;;;;;;;;;;;;;4899660;29;19926;-79
2023/04/07 03:03:34;;;;;;;;;;;;;;;;;;4899079;29;19921;-79
2023/04/07 03:06:21;;;;;;;;;;;;;;;;;;4898996;29;19951;-80
2023/04/07 03:09:01;;;;;;;;;;;;;;;;;;4872353;29;19948;-80
2023/04/07 03:11:27;;;;;;;;;;;;;;;;;;4902934;29;20011;-80
2023/04/07 03:13:54;;;;;;;;;;;;;;;;;;4900174;29;19920;-79
2023/04/07 03:16:19;;;;;;;;;;;;;;;;;;4898527;29;19971;-79
2023/04/07 03:18:58;;;;;;;;;;;;;;;;;;4900933;29;19956;-79
2023/04/07 03:21:23;;;;;;;;;;;;;;;;;;4902442;29;20359;-79
2023/04/07 03:23:49;;;;;;;;;;;;;;;;;;4903671;29;19915;-79
2023/04/07 03:26:15;;;;;;;;;;;;;;;;;;4909490;29;19915;-79
2023/04/07 03:28:41;;;;;;;;;;;;;;;;;;4895495;29;19912;-79
2023/04/07 03:31:06;;;;;;;;;;;;;;;;;;4916018;29;19916;-79
2023/04/07 03:33:32;;;;;;;;;;;;;;;;;;4900055;29;19915;-79
2023/04/07 03:35:57;;;;;;;;;;;;;;;;;;4898119;29;19985;-79
2023/04/07 03:38:23;;;;;;;;;;;;;;;;;;4895130;29;19984;-79
2023/04/07 03:40:53;;;;;;;;;;;;;;;;;;4911173;29;19916;-79
2023/04/07 03:43:19;;;;;;;;;;;;;;;;;;4910124;29;19922;-79
2023/04/07 03:45:45;;;;;;;;;;;;;;;;;;4903686;29;19960;-80
2023/04/07 03:48:11;;;;;;;;;;;;;;;;;;4895362;29;19916;-79
2023/04/07 03:50:43;;;;;;;;;;;;;;;;;;4909132;29;19915;-79
2023/04/07 03:53:15;;;;;;;;;;;;;;;;;;4897973;29;20010;-79
2023/04/07 03:55:40;;;;;;;;;;;;;;;;;;4882358;29;19922;-79
2023/04/07 03:58:12;;;;;;;;;;;;;;;;;;4883290;29;20417;-79
2023/04/07 04:00:38;;;;;;;;;;;;;;;;;;4881775;29;19919;-79
2023/04/07 04:03:09;;;;;;;;;;;;;;;;;;4897325;29;19922;-79
2023/04/07 04:05:40;;;;;;;;;;;;;;;;;;4897255;29;19916;-79
2023/04/07 04:08:07;;;;;;;;;;;;;;;;;;4898752;29;20440;-80
2023/04/07 04:10:35;;;;;;;;;;;;;;;;;;4884022;29;19915;-79
2023/04/07 04:13:02;;;;;;;;;;;;;;;;;;4899464;29;20006;-79
2023/04/07 04:15:28;;;;;;;;;;;;;;;;;;4885524;29;19962;-79
2023/04/07 04:17:54;;;;;;;;;;;;;;;;;;4904250;29;19927;-79
2023/04/07 04:20:21;;;;;;;;;;;;;;;;;;4904446;29;20452;-79
2023/04/07 04:22:48;;;;;;;;;;;;;;;;;;4903733;29;19920;-79
2023/04/07 04:25:15;;;;;;;;;;;;;;;;;;4903083;29;19939;-79
2023/04/07 04:27:45;;;;;;;;;;;;;;;;;;4903980;29;19967;-78
2023/04/07 04:30:16;;;;;;;;;;;;;;;;;;4887129;29;20002;-79
2023/04/07 04:32:49;;;;;;;;;;;;;;;;;;4901012;29;19955;-80
2023/04/07 04:35:17;;;;;;;;;;;;;;;;;;4884960;29;19915;-80
2023/04/07 04:37:57;;;;;;;;;;;;;;;;;;4871755;29;19919;-79
2023/04/07 04:40:22;;;;;;;;;;;;;;;;;;4893404;29;20350;-79
2023/04/07 04:42:49;;;;;;;;;;;;;;;;;;4881347;29;19915;-79
2023/04/07 04:45:15;;;;;;;;;;;;;;;;;;4880868;29;19972;-79
2023/04/07 04:47:46;;;;;;;;;;;;;;;;;;4866167;29;21668;-79
2023/04/07 04:50:12;;;;;;;;;;;;;;;;;;4865835;29;19916;-79
2023/04/07 04:52:39;;;;;;;;;;;;;;;;;;4880940;29;19926;-79
2023/04/07 04:55:06;;;;;;;;;;;;;;;;;;4865204;29;19920;-79
2023/04/07 04:57:33;;;;;;;;;;;;;;;;;;4899655;29;19922;-79
2023/04/07 04:59:59;;;;;;;;;;;;;;;;;;4884592;29;19963;-80
2023/04/07 05:02:25;;;;;;;;;;;;;;;;;;4884158;29;20002;-80
2023/04/07 05:04:50;;;;;;;;;;;;;;;;;;4899386;29;19970;-79
2023/04/07 05:07:20;;;;;;;;;;;;;;;;;;4900319;29;20063;-79
2023/04/07 05:09:46;;;;;;;;;;;;;;;;;;4886115;29;20409;-79
2023/04/07 05:12:13;;;;;;;;;;;;;;;;;;4898215;29;20423;-79
2023/04/07 05:14:44;;;;;;;;;;;;;;;;;;4884087;29;19915;-79
2023/04/07 05:17:09;;;;;;;;;;;;;;;;;;4899691;29;19916;-79
2023/04/07 05:19:36;;;;;;;;;;;;;;;;;;4885297;29;19920;-79
2023/04/07 05:22:12;;;;;;;;;;;;;;;;;;4899472;29;19919;-79
2023/04/07 05:24:44;;;;;;;;;;;;;;;;;;4884741;29;19919;-79
2023/04/07 05:27:09;;;;;;;;;;;;;;;;;;4898704;29;19922;-80
2023/04/07 05:29:36;;;;;;;;;;;;;;;;;;4884258;29;19916;-80
2023/04/07 05:32:01;;;;;;;;;;;;;;;;;;4899554;29;20359;-79
2023/04/07 05:34:29;;;;;;;;;;;;;;;;;;4884112;29;19919;-79
2023/04/07 05:36:55;;;;;;;;;;;;;;;;;;4898946;29;19922;-79
2023/04/07 05:39:21;;;;;;;;;;;;;;;;;;4900875;29;20470;-79
2023/04/07 05:41:49;;;;;;;;;;;;;;;;;;4884981;29;19963;-79
2023/04/07 05:44:14;;;;;;;;;;;;;;;;;;4883939;29;20395;-79
2023/04/07 05:46:40;;;;;;;;;;;;;;;;;;4897639;29;20000;-79
2023/04/07 05:49:06;;;;;;;;;;;;;;;;;;4883566;29;19936;-79
2023/04/07 05:51:32;;;;;;;;;;;;;;;;;;4884015;29;19919;-79
2023/04/07 05:54:00;;;;;;;;;;;;;;;;;;4898900;29;19939;-79
2023/04/07 05:56:25;;;;;;;;;;;;;;;;;;4899182;29;20384;-78
2023/04/07 05:58:52;;;;;;;;;;;;;;;;;;4899773;29;20295;-79
2023/04/07 06:01:17;;;;;;;;;;;;;;;;;;4899169;29;19923;-79
2023/04/07 06:03:43;;;;;;;;;;;;;;;;;;4900011;29;19920;-79
2023/04/07 06:06:12;;;;;;;;;;;;;;;;;;4899276;29;20410;-79
2023/04/07 06:08:38;;;;;;;;;;;;;;;;;;4883076;29;19915;-79
2023/04/07 06:11:04;;;;;;;;;;;;;;;;;;4900579;29;19915;-79
2023/04/07 06:13:29;;;;;;;;;;;;;;;;;;4900140;29;20295;-79
2023/04/07 06:15:58;;;;;;;;;;;;;;;;;;4883075;29;19991;-80
2023/04/07 06:18:23;;;;;;;;;;;;;;;;;;4882781;29;19926;-79
2023/04/07 06:20:49;;;;;;;;;;;;;;;;;;4883638;29;19916;-79
2023/04/07 06:23:14;;;;;;;;;;;;;;;;;;4887026;29;20000;-79
2023/04/07 06:25:40;;;;;;;;;;;;;;;;;;4881443;29;19935;-79
2023/04/07 06:28:05;;;;;;;;;;;;;;;;;;4864184;29;19961;-79
2023/04/07 06:30:31;;;;;;;;;;;;;;;;;;4880947;29;19916;-79
2023/04/07 06:32:56;;;;;;;;;;;;;;;;;;4881608;29;19920;-79
2023/04/07 06:35:25;;;;;;;;;;;;;;;;;;4880849;29;19922;-79
2023/04/07 06:37:51;;;;;;;;;;;;;;;;;;5013805;23;20437;-83
2023/04/07 06:40:16;;;;;;;;;;;;;;;;;;4937366;29;19915;-84
2023/04/07 06:42:43;;;;;;;;;;;;;;;;;;4936269;29;19980;-82
2023/04/07 06:45:26;;;;;;;;;;;;;;;;;;4932361;29;19978;-82
2023/04/07 06:47:51;;;;;;;;;;;;;;;;;;4912646;29;19939;-83
2023/04/07 06:50:19;;;;;;;;;;;;;;;;;;4919318;29;19927;-85
2023/04/07 06:53:04;;;;;;;;;;;;;;;;;;5093856;23;19927;-81
2023/04/07 06:55:30;;;;;;;;;;;;;;;;;;4931089;29;19939;-82
2023/04/07 06:57:55;;;;;;;;;;;;;;;;;;4908649;29;19987;-80
2023/04/07 07:00:21;;;;;;;;;;;;;;;;;;4920071;29;19907;-81
2023/04/07 07:02:47;;;;;;;;;;;;;;;;;;4905588;29;19916;-80
2023/04/07 07:05:12;;;;;;;;;;;;;;;;;;4920014;29;19989;-80
2023/04/07 07:07:38;;;;;;;;;;;;;;;;;;4920762;29;19915;-79
2023/04/07 07:10:03;;;;;;;;;;;;;;;;;;4921603;29;19915;-79
2023/04/07 07:12:32;;;;;;;;;;;;;;;;;;4918420;29;19911;-80
2023/04/07 07:14:57;;;;;;;;;;;;;;;;;;4919074;29;19923;-82
2023/04/07 07:17:23;;;;;;;;;;;;;;;;;;4921770;29;19899;-79
2023/04/07 07:19:48;;;;;;;;;;;;;;;;;;4936856;29;19919;-82
2023/04/07 07:22:14;;;;;;;;;;;;;;;;;;4919466;29;19916;-82
2023/04/07 07:24:40;;;;;;;;;;;;;;;;;;4916439;29;19915;-82
2023/04/07 07:27:05;;;;;;;;;;;;;;;;;;4914280;29;19916;-82
2023/04/07 07:29:33;;;;;;;;;;;;;;;;;;4916856;29;19951;-84
2023/04/07 07:31:59;;;;;;;;;;;;;;;;;;4905317;29;19922;-84
2023/04/07 07:34:27;;;;;;;;;;;;;;;;;;5182423;23;19912;-84
2023/04/07 07:42:35;;;;;;;;;;;;;;;;;;5139314;23;19911;-90
2023/04/07 07:45:01;;;;;;;;;;;;;;;;;;5010717;23;19927;-90
2023/04/07 07:47:26;;;;;;;;;;;;;;;;;;4940567;29;19899;-92
2023/04/07 07:49:52;;;;;;;;;;;;;;;;;;4980239;23;19927;-90
2023/04/07 07:52:19;;;;;;;;;;;;;;;;;;4928086;29;19923;-90
2023/04/07 07:54:45;;;;;;;;;;;;;;;;;;4940538;29;19915;-90
2023/04/07 07:57:10;;;;;;;;;;;;;;;;;;4921961;29;19963;-87
2023/04/07 07:59:35;;;;;;;;;;;;;;;;;;4902941;29;20014;-85
2023/04/07 08:02:04;;;;;;;;;;;;;;;;;;4903223;29;19923;-84
2023/04/07 08:04:29;;;;;;;;;;;;;;;;;;4916342;29;20091;-83
2023/04/07 08:06:55;;;;;;;;;;;;;;;;;;4900956;29;19979;-84
2023/04/07 08:09:20;;;;;;;;;;;;;;;;;;4901499;29;20387;-83
2023/04/07 08:11:47;;;;;;;;;;;;;;;;;;4904403;29;20463;-87
2023/04/07 08:14:12;;;;;;;;;;;;;;;;;;4886847;29;19951;-80
2023/04/07 08:16:38;;;;;;;;;;;;;;;;;;4900638;29;19969;-78
2023/04/07 08:19:03;;;;;;;;;;;;;;;;;;4916446;29;19919;-76
2023/04/07 08:21:30;;;;;;;;;;;;;;;;;;4902713;29;20375;-77
2023/04/07 08:23:55;;;;;;;;;;;;;;;;;;4919666;29;19915;-78
2023/04/07 08:26:21;;;;;;;;;;;;;;;;;;4918967;29;19943;-78
2023/04/07 08:28:46;;;;;;;;;;;;;;;;;;4919298;29;20349;-77
2023/04/07 08:31:11;;;;;;;;;;;;;;;;;;4917903;29;19915;-78
2023/04/07 08:33:37;;;;;;;;;;;;;;;;;;4918124;29;19938;-78
2023/04/07 08:36:02;;;;;;;;;;;;;;;;;;4918589;29;19911;-79
2023/04/07 08:38:27;;;;;;;;;;;;;;;;;;4918938;29;20295;-79
2023/04/07 08:40:53;;;;;;;;;;;;;;;;;;4917620;29;19915;-78
2023/04/07 08:43:18;;;;;;;;;;;;;;;;;;4918839;29;19916;-78
2023/04/07 08:45:44;;;;;;;;;;;;;;;;;;4917112;29;20455;-76
2023/04/07 08:48:09;;;;;;;;;;;;;;;;;;4918621;29;19915;-77
2023/04/07 08:50:35;;;;;;;;;;;;;;;;;;4918240;29;19919;-78
2023/04/07 08:53:00;;;;;;;;;;;;;;;;;;4918199;29;19922;-77
2023/04/07 08:55:26;;;;;;;;;;;;;;;;;;4917938;29;19915;-77
2023/04/07 08:57:51;;;;;;;;;;;;;;;;;;4917511;29;19922;-78
2023/04/07 09:00:16;;;;;;;;;;;;;;;;;;4918727;29;19915;-78
2023/04/07 09:02:46;;;;;;;;;;;;;;;;;;4917757;29;20013;-76
2023/04/07 09:05:13;;;;;;;;;;;;;;;;;;4908454;29;20344;-77
2023/04/07 09:07:43;;;;;;;;;;;;;;;;;;4917275;29;19919;-78
2023/04/07 09:10:08;;;;;;;;;;;;;;;;;;4903940;29;20386;-77
2023/04/07 09:12:34;;;;;;;;;;;;;;;;;;4913926;29;19915;-77
2023/04/07 09:14:59;;;;;;;;;;;;;;;;;;4903835;29;19919;-79
2023/04/07 09:17:25;;;;;;;;;;;;;;;;;;4909778;29;20372;-77
2023/04/07 09:19:51;;;;;;;;;;;;;;;;;;4909613;29;20303;-78
2023/04/07 09:22:16;;;;;;;;;;;;;;;;;;4902844;29;19915;-78
2023/04/07 09:24:41;;;;;;;;;;;;;;;;;;4914749;29;19915;-78
2023/04/07 09:27:07;;;;;;;;;;;;;;;;;;4904916;29;19915;-77
2023/04/07 09:29:32;;;;;;;;;;;;;;;;;;4908929;29;19947;-78
2023/04/07 09:31:58;;;;;;;;;;;;;;;;;;4911682;29;19915;-77
2023/04/07 09:34:23;;;;;;;;;;;;;;;;;;4902296;29;20299;-79
2023/04/07 09:36:48;;;;;;;;;;;;;;;;;;4897120;29;19916;-78
2023/04/07 09:39:14;;;;;;;;;;;;;;;;;;4888693;29;19919;-78
2023/04/07 09:41:40;;;;;;;;;;;;;;;;;;4907672;29;19915;-78
2023/04/07 09:44:05;;;;;;;;;;;;;;;;;;4895548;29;19967;-77
2023/04/07 09:46:31;;;;;;;;;;;;;;;;;;4901560;29;19916;-77
2023/04/07 09:48:57;;;;;;;;;;;;;;;;;;4895695;29;20006;-78
2023/04/07 09:51:22;;;;;;;;;;;;;;;;;;4906190;29;20046;-78
2023/04/07 09:53:47;;;;;;;;;;;;;;;;;;4906149;29;19920;-77
2023/04/07 09:56:15;;;;;;;;;;;;;;;;;;4912609;29;19915;-78
2023/04/07 09:58:40;;;;;;;;;;;;;;;;;;4900927;29;19927;-78
2023/04/07 10:01:07;;;;;;;;;;;;;;;;;;4910439;29;19912;-76
2023/04/07 10:03:32;;;;;;;;;;;;;;;;;;4905481;29;19915;-76
2023/04/07 10:05:58;;;;;;;;;;;;;;;;;;4913195;29;19926;-77
2023/04/07 10:08:23;;;;;;;;;;;;;;;;;;4901600;29;19923;-77
2023/04/07 10:10:50;;;;;;;;;;;;;;;;;;4913504;29;19962;-77
2023/04/07 10:13:15;;;;;;;;;;;;;;;;;;4888429;29;19919;-77
2023/04/07 10:15:41;;;;;;;;;;;;;;;;;;4908946;29;19930;-76
2023/04/07 10:18:07;;;;;;;;;;;;;;;;;;4906426;29;19919;-87
2023/04/07 10:20:33;;;;;;;;;;;;;;;;;;4906002;29;19915;-86
2023/04/07 10:22:58;;;;;;;;;;;;;;;;;;4903004;29;19922;-84
2023/04/07 10:25:24;;;;;;;;;;;;;;;;;;4895938;29;20010;-87
2023/04/07 10:27:50;;;;;;;;;;;;;;;;;;4899794;29;19955;-85
2023/04/07 10:30:15;;;;;;;;;;;;;;;;;;4918798;29;19899;-83
2023/04/07 10:32:41;;;;;;;;;;;;;;;;;;4939160;28;19950;-85
2023/04/07 10:35:06;;;;;;;;;;;;;;;;;;4937208;29;19915;-84
2023/04/07 10:37:33;;;;;;;;;;;;;;;;;;4924908;29;19947;-83
2023/04/07 10:39:58;;;;;;;;;;;;;;;;;;4938499;29;19983;-84
2023/04/07 10:42:24;;;;;;;;;;;;;;;;;;4931376;29;19940;-82
2023/04/07 10:44:49;;;;;;;;;;;;;;;;;;4918363;29;19922;-82
2023/04/07 10:47:15;;;;;;;;;;;;;;;;;;4919789;29;19916;-84
2023/04/07 10:49:41;;;;;;;;;;;;;;;;;;4892477;29;19915;-84
2023/04/07 10:52:06;;;;;;;;;;;;;;;;;;4906973;29;19920;-84
2023/04/07 10:54:31;;;;;;;;;;;;;;;;;;4897069;29;19911;-85
2023/04/07 10:56:57;;;;;;;;;;;;;;;;;;4898410;29;19920;-86
2023/04/07 10:59:26;;;;;;;;;;;;;;;;;;4888177;29;19919;-83
2023/04/07 11:01:51;;;;;;;;;;;;;;;;;;4916282;29;19919;-82
2023/04/07 11:04:17;;;;;;;;;;;;;;;;;;4916484;29;20062;-84
2023/04/07 11:06:42;;;;;;;;;;;;;;;;;;4885360;29;20006;-82
2023/04/07 11:09:08;;;;;;;;;;;;;;;;;;4913914;29;20344;-84
2023/04/07 11:11:33;;;;;;;;;;;;;;;;;;4898264;29;19995;-84
2023/04/07 11:13:59;;;;;;;;;;;;;;;;;;4891951;29;20280;-84
2023/04/07 11:16:25;;;;;;;;;;;;;;;;;;4915440;29;19915;-82
2023/04/07 11:18:51;;;;;;;;;;;;;;;;;;4913517;29;20290;-85
2023/04/07 11:21:17;;;;;;;;;;;;;;;;;;4885457;29;19963;-83
2023/04/07 11:23:42;;;;;;;;;;;;;;;;;;4901676;29;20399;-84
2023/04/07 11:26:08;;;;;;;;;;;;;;;;;;4908071;29;19919;-84
2023/04/07 11:28:34;;;;;;;;;;;;;;;;;;4899592;29;19915;-84
2023/04/07 11:30:59;;;;;;;;;;;;;;;;;;4914762;29;20238;-85
2023/04/07 11:33:25;;;;;;;;;;;;;;;;;;4909574;29;19916;-84
2023/04/07 11:35:50;;;;;;;;;;;;;;;;;;4905318;29;19922;-84
2023/04/07 11:38:16;;;;;;;;;;;;;;;;;;4914412;29;19916;-83
2023/04/07 11:40:41;;;;;;;;;;;;;;;;;;4883764;29;19923;-84
2023/04/07 11:43:06;;;;;;;;;;;;;;;;;;4907605;29;19920;-85
2023/04/07 11:45:32;;;;;;;;;;;;;;;;;;4915001;29;20328;-85
2023/04/07 11:47:57;;;;;;;;;;;;;;;;;;4901380;29;20280;-87
2023/04/07 11:50:23;;;;;;;;;;;;;;;;;;4918317;29;19926;-88
2023/04/07 11:52:48;;;;;;;;;;;;;;;;;;4899508;29;19915;-83
2023/04/07 11:55:13;;;;;;;;;;;;;;;;;;4902526;29;19915;-85
2023/04/07 11:57:39;;;;;;;;;;;;;;;;;;4909389;29;19915;-81
2023/04/07 12:00:04;;;;;;;;;;;;;;;;;;4907559;29;19927;-79
2023/04/07 12:02:30;;;;;;;;;;;;;;;;;;4915875;29;20413;-78
2023/04/07 12:04:56;;;;;;;;;;;;;;;;;;4899782;29;19922;-78
2023/04/07 12:07:22;;;;;;;;;;;;;;;;;;4908241;29;19916;-79
2023/04/07 12:09:47;;;;;;;;;;;;;;;;;;4904992;29;19939;-77
2023/04/07 12:12:13;;;;;;;;;;;;;;;;;;4902787;29;19915;-77
2023/04/07 12:14:38;;;;;;;;;;;;;;;;;;4911946;29;20434;-78
2023/04/07 12:17:04;;;;;;;;;;;;;;;;;;4898779;29;20346;-77
2023/04/07 12:19:29;;;;;;;;;;;;;;;;;;4907253;29;20372;-77
2023/04/07 12:21:55;;;;;;;;;;;;;;;;;;4894248;29;19915;-78
2023/04/07 12:24:21;;;;;;;;;;;;;;;;;;4909999;29;20248;-77
2023/04/07 12:26:46;;;;;;;;;;;;;;;;;;4866989;29;20447;-78
2023/04/07 12:29:12;;;;;;;;;;;;;;;;;;4910357;29;19973;-77
2023/04/07 12:31:37;;;;;;;;;;;;;;;;;;4904856;29;19919;-76
2023/04/07 12:34:03;;;;;;;;;;;;;;;;;;4886991;29;19916;-77
2023/04/07 12:36:28;;;;;;;;;;;;;;;;;;4910896;29;20055;-78
2023/04/07 12:38:53;;;;;;;;;;;;;;;;;;4921474;23;19934;-78
2023/04/07 12:41:19;;;;;;;;;;;;;;;;;;4912063;29;19912;-76
2023/04/07 12:43:44;;;;;;;;;;;;;;;;;;4904850;29;19919;-78
2023/04/07 12:46:10;;;;;;;;;;;;;;;;;;4889636;29;20010;-78
2023/04/07 12:48:35;;;;;;;;;;;;;;;;;;4898153;29;20411;-75
2023/04/07 12:51:01;;;;;;;;;;;;;;;;;;4895710;29;19915;-78
2023/04/07 12:53:26;;;;;;;;;;;;;;;;;;4911770;29;19963;-78
2023/04/07 12:55:52;;;;;;;;;;;;;;;;;;4909088;29;19938;-77
2023/04/07 12:58:18;;;;;;;;;;;;;;;;;;4904982;29;19926;-78
2023/04/07 13:00:43;;;;;;;;;;;;;;;;;;4914943;29;19919;-77
2023/04/07 13:03:08;;;;;;;;;;;;;;;;;;4889504;29;19922;-78
2023/04/07 13:05:34;;;;;;;;;;;;;;;;;;4890215;29;19938;-77
2023/04/07 13:07:59;;;;;;;;;;;;;;;;;;4885964;29;20363;-78
2023/04/07 13:10:26;;;;;;;;;;;;;;;;;;4904875;29;19920;-78
2023/04/07 13:12:52;;;;;;;;;;;;;;;;;;4913738;29;20387;-75
2023/04/07 13:15:17;;;;;;;;;;;;;;;;;;4905366;29;19916;-78
2023/04/07 13:17:42;;;;;;;;;;;;;;;;;;4908295;29;19915;-77
2023/04/07 13:20:08;;;;;;;;;;;;;;;;;;4910200;29;19919;-78
2023/04/07 13:22:33;;;;;;;;;;;;;;;;;;4901427;29;19915;-77
2023/04/07 13:24:59;;;;;;;;;;;;;;;;;;4913961;29;19946;-77
2023/04/07 13:27:24;;;;;;;;;;;;;;;;;;4904199;29;19915;-75
2023/04/07 13:29:49;;;;;;;;;;;;;;;;;;4908464;29;20299;-76
2023/04/07 13:32:15;;;;;;;;;;;;;;;;;;4911391;29;19926;-78
2023/04/07 13:34:41;;;;;;;;;;;;;;;;;;4902249;29;19915;-76
2023/04/07 13:37:06;;;;;;;;;;;;;;;;;;4914816;29;19915;-77
2023/04/07 13:39:32;;;;;;;;;;;;;;;;;;4910514;29;19919;-76
2023/04/07 13:41:57;;;;;;;;;;;;;;;;;;4909542;29;19971;-78
2023/04/07 13:44:22;;;;;;;;;;;;;;;;;;4902773;29;19923;-77
2023/04/07 13:46:48;;;;;;;;;;;;;;;;;;4886721;29;19972;-77
2023/04/07 13:49:16;;;;;;;;;;;;;;;;;;4912626;29;19998;-78
2023/04/07 13:51:42;;;;;;;;;;;;;;;;;;4907451;29;19922;-78
2023/04/07 13:54:07;;;;;;;;;;;;;;;;;;4870697;29;19916;-78
2023/04/07 13:56:34;;;;;;;;;;;;;;;;;;4909777;29;19915;-78
2023/04/07 13:58:59;;;;;;;;;;;;;;;;;;4906893;29;20441;-79
2023/04/07 14:01:25;;;;;;;;;;;;;;;;;;4932722;29;19958;-78
2023/04/07 14:03:51;;;;;;;;;;;;;;;;;;4889030;29;19922;-77
2023/04/07 14:06:16;;;;;;;;;;;;;;;;;;4920898;29;19943;-77
2023/04/07 14:08:41;;;;;;;;;;;;;;;;;;4917640;29;19915;-78
2023/04/07 14:11:07;;;;;;;;;;;;;;;;;;4899799;29;19916;-83
2023/04/07 14:13:32;;;;;;;;;;;;;;;;;;4902684;29;19915;-85
2023/04/07 14:15:58;;;;;;;;;;;;;;;;;;4930104;28;19945;-85
2023/04/07 14:18:23;;;;;;;;;;;;;;;;;;4914284;29;19935;-85
2023/04/07 14:20:49;;;;;;;;;;;;;;;;;;4911709;29;19923;-85
2023/04/07 14:23:14;;;;;;;;;;;;;;;;;;4922786;29;19915;-85
2023/04/07 14:25:40;;;;;;;;;;;;;;;;;;4917052;29;19950;-85
2023/04/07 14:28:05;;;;;;;;;;;;;;;;;;4914940;29;19919;-84
2023/04/07 14:30:33;;;;;;;;;;;;;;;;;;4891182;29;20291;-86
2023/04/07 14:32:58;;;;;;;;;;;;;;;;;;4906482;29;19940;-83
2023/04/07 14:35:24;;;;;;;;;;;;;;;;;;4912639;29;19915;-85
2023/04/07 14:37:51;;;;;;;;;;;;;;;;;;4911252;29;19979;-84
2023/04/07 14:40:16;;;;;;;;;;;;;;;;;;4921651;29;19916;-85
2023/04/07 14:42:42;;;;;;;;;;;;;;;;;;4904081;29;19919;-81
2023/04/07 14:45:07;;;;;;;;;;;;;;;;;;4900474;29;19950;-81
2023/04/07 14:47:33;;;;;;;;;;;;;;;;;;4907966;29;19915;-80
2023/04/07 14:49:58;;;;;;;;;;;;;;;;;;4889922;29;20256;-81
2023/04/07 14:52:24;;;;;;;;;;;;;;;;;;4897879;29;19927;-83
2023/04/07 14:54:50;;;;;;;;;;;;;;;;;;4912907;29;19969;-81
2023/04/07 14:57:15;;;;;;;;;;;;;;;;;;4902793;29;19915;-81
2023/04/07 14:59:41;;;;;;;;;;;;;;;;;;4886777;29;19920;-82
2023/04/07 15:02:06;;;;;;;;;;;;;;;;;;4885986;29;19931;-81
2023/04/07 15:04:32;;;;;;;;;;;;;;;;;;4866596;29;19916;-83
2023/04/07 15:06:57;;;;;;;;;;;;;;;;;;4912358;29;19930;-80
2023/04/07 15:09:23;;;;;;;;;;;;;;;;;;4896096;29;20292;-82
2023/04/07 15:11:48;;;;;;;;;;;;;;;;;;4907456;29;19934;-84
2023/04/07 15:14:14;;;;;;;;;;;;;;;;;;4902452;29;19915;-83
2023/04/07 15:16:39;;;;;;;;;;;;;;;;;;4911171;29;19965;-76
2023/04/07 15:19:05;;;;;;;;;;;;;;;;;;4883986;29;20294;-76
2023/04/07 15:21:31;;;;;;;;;;;;;;;;;;4907525;29;19975;-76
2023/04/07 15:23:56;;;;;;;;;;;;;;;;;;4907464;29;20402;-75
2023/04/07 15:26:21;;;;;;;;;;;;;;;;;;4901757;29;19919;-82
2023/04/07 15:28:47;;;;;;;;;;;;;;;;;;4914129;29;19911;-82
2023/04/07 15:31:13;;;;;;;;;;;;;;;;;;4891119;29;20376;-83
2023/04/07 15:33:38;;;;;;;;;;;;;;;;;;4893670;29;19911;-84
2023/04/07 15:36:03;;;;;;;;;;;;;;;;;;4904136;29;20431;-81
2023/04/07 15:38:29;;;;;;;;;;;;;;;;;;4910061;29;19923;-83
2023/04/07 15:40:54;;;;;;;;;;;;;;;;;;4900239;29;20051;-84
2023/04/07 15:43:19;;;;;;;;;;;;;;;;;;4909646;29;20308;-82
2023/04/07 15:45:45;;;;;;;;;;;;;;;;;;4906171;29;19919;-83
2023/04/07 15:48:10;;;;;;;;;;;;;;;;;;4903688;29;19919;-84
2023/04/07 15:50:36;;;;;;;;;;;;;;;;;;4903331;29;19916;-84
2023/04/07 15:53:03;;;;;;;;;;;;;;;;;;4912922;29;19923;-83
2023/04/07 15:55:28;;;;;;;;;;;;;;;;;;4903299;29;20347;-85
2023/04/07 15:57:54;;;;;;;;;;;;;;;;;;4904188;29;19979;-85
2023/04/07 16:00:20;;;;;;;;;;;;;;;;;;4893687;29;19915;-84
2023/04/07 16:02:46;;;;;;;;;;;;;;;;;;4900920;29;19920;-84
2023/04/07 16:05:12;;;;;;;;;;;;;;;;;;4909576;29;20388;-84
2023/04/07 16:07:37;;;;;;;;;;;;;;;;;;4905349;29;19915;-84
2023/04/07 16:10:03;;;;;;;;;;;;;;;;;;4905054;29;19915;-81
2023/04/07 16:12:28;;;;;;;;;;;;;;;;;;4920206;29;19933;-81
2023/04/07 16:14:54;;;;;;;;;;;;;;;;;;4907650;29;20293;-82
2023/04/07 16:17:19;;;;;;;;;;;;;;;;;;4912614;29;20295;-81
2023/04/07 16:19:47;;;;;;;;;;;;;;;;;;4908827;29;19930;-83
2023/04/07 16:22:13;;;;;;;;;;;;;;;;;;4887819;29;19964;-84
2023/04/07 16:24:38;;;;;;;;;;;;;;;;;;4880387;29;20022;-83
2023/04/07 16:27:04;;;;;;;;;;;;;;;;;;4902389;29;19919;-83
2023/04/07 16:29:29;;;;;;;;;;;;;;;;;;4891663;29;19915;-83
2023/04/07 16:31:55;;;;;;;;;;;;;;;;;;4870130;29;19926;-83
2023/04/07 16:34:20;;;;;;;;;;;;;;;;;;4905029;29;19922;-82
2023/04/07 16:36:46;;;;;;;;;;;;;;;;;;4912548;29;20400;-83
2023/04/07 16:39:11;;;;;;;;;;;;;;;;;;4893905;29;20321;-83
2023/04/07 16:41:37;;;;;;;;;;;;;;;;;;4896194;29;20315;-84
2023/04/07 16:44:02;;;;;;;;;;;;;;;;;;4906356;29;19963;-84